Time,TemperatureF,DewpointF,PressureIn,WindDirection,WindDirectionDegrees,WindSpeedMPH,WindSpeedGustMPH,Humidity,HourlyPrecipIn,Conditions,Clouds,dailyrainin,SoftwareType,DateUTC
2013-05-20 00:01:00,42.3,36.9,30.02,NNE,31,0.0,0.0,81,0.00,RA,,0.00,WeatherDisplay:10.37,2013-05-20 06:01:00,
2013-05-20 00:06:00,42.2,36.8,30.02,NNE,31,0.0,0.0,81,0.00,RA,,0.00,WeatherDisplay:10.37,2013-05-20 06:06:00,
2013-05-20 00:11:00,42.2,36.8,30.02,NNE,31,0.0,0.0,81,0.00,CLR,,0.00,WeatherDisplay:10.37,2013-05-20 06:11:00,
2013-05-20 00:16:00,42.1,36.7,30.02,NNE,31,0.0,0.0,81,0.00,CLR,,0.00,WeatherDisplay:10.37,2013-05-20 06:16:00,
2013-05-20 00:21:00,42.1,37.0,30.01,NNE,31,0.0,0.0,82,0.00,CLR,,0.00,WeatherDisplay:10.37,2013-05-20 06:21:00,
2013-05-20 00:26:00,42.1,37.0,30.01,NNE,31,0.0,0.0,82,0.00,CLR,,0.00,WeatherDisplay:10.37,2013-05-20 06:26:00,
2013-05-20 00:31:00,42.1,37.0,30.01,NNE,31,0.0,0.0,82,0.00,CLR,,0.00,WeatherDisplay:10.37,2013-05-20 06:31:00,
2013-05-20 00:36:00,42.1,37.0,30.01,NNE,31,0.0,0.0,82,0.00,CLR,,0.00,WeatherDisplay:10.37,2013-05-20 06:36:00,
2013-05-20 00:41:00,42.1,37.3,30.01,NNE,31,0.0,0.0,83,0.00,CLR,,0.00,WeatherDisplay:10.37,2013-05-20 06:41:00,
2013-05-20 00:46:00,42.2,37.1,30.01,NNE,31,0.0,0.0,82,0.00,CLR,,0.00,WeatherDisplay:10.37,2013-05-20 06:46:00,
2013-05-20 00:51:00,42.2,37.1,30.00,ENE,57,1.1,1.1,82,0.00,CLR,,0.00,WeatherDisplay:10.37,2013-05-20 06:51:00,
2013-05-20 00:56:00,42.2,37.4,30.00,ENE,57,0.0,0.0,83,0.00,CLR,,0.00,WeatherDisplay:10.37,2013-05-20 06:56:00,
2013-05-20 01:01:00,42.2,37.4,30.00,ENE,57,0.0,0.0,83,0.00,CLR,,0.00,WeatherDisplay:10.37,2013-05-20 07:01:00,
2013-05-20 01:06:00,42.2,37.4,30.00,ENE,57,0.0,0.0,83,0.00,CLR,,0.00,WeatherDisplay:10.37,2013-05-20 07:06:00,
2013-05-20 01:11:00,42.3,37.5,30.00,ENE,57,0.0,0.0,83,0.00,CLR,,0.00,WeatherDisplay:10.37,2013-05-20 07:11:00,
2013-05-20 01:16:00,42.3,37.5,30.00,ENE,57,0.0,0.0,83,0.00,CLR,,0.00,WeatherDisplay:10.37,2013-05-20 07:16:00,
2013-05-20 01:21:00,42.3,37.5,29.99,ENE,57,0.0,0.0,83,0.00,CLR,,0.00,WeatherDisplay:10.37,2013-05-20 07:21:00,
2013-05-20 01:26:00,42.3,37.5,29.99,ENE,57,0.0,0.0,83,0.00,CLR,,0.00,WeatherDisplay:10.37,2013-05-20 07:26:00,
2013-05-20 01:31:00,42.2,37.4,29.99,ENE,57,0.0,0.0,83,0.00,CLR,,0.00,WeatherDisplay:10.37,2013-05-20 07:31:00,
2013-05-20 01:36:00,42.2,37.1,29.99,West,272,2.0,2.0,82,0.00,CLR,,0.00,WeatherDisplay:10.37,2013-05-20 07:36:00,
2013-05-20 01:41:00,42.3,35.9,29.99,West,269,8.1,8.1,78,0.00,CLR,,0.00,WeatherDisplay:10.37,2013-05-20 07:41:00,
2013-05-20 01:46:00,42.7,36.0,29.99,WNW,284,5.8,5.8,77,0.00,CLR,,0.00,WeatherDisplay:10.37,2013-05-20 07:46:00,
2013-05-20 01:51:00,43.1,35.7,29.99,West,277,2.3,2.3,75,0.00,CLR,,0.00,WeatherDisplay:10.37,2013-05-20 07:51:00,
2013-05-20 01:56:00,43.4,36.0,29.99,West,272,3.5,3.5,75,0.00,CLR,,0.00,WeatherDisplay:10.37,2013-05-20 07:56:00,
2013-05-20 02:01:00,43.7,36.3,29.99,West,260,3.5,3.5,75,0.00,CLR,,0.00,WeatherDisplay:10.37,2013-05-20 08:01:00,
2013-05-20 02:06:00,43.8,36.0,29.99,West,271,6.0,6.0,74,0.00,CLR,,0.00,WeatherDisplay:10.37,2013-05-20 08:06:00,
2013-05-20 02:11:00,43.8,36.0,29.99,WNW,300,5.0,5.0,74,0.00,CLR,,0.00,WeatherDisplay:10.37,2013-05-20 08:11:00,
2013-05-20 02:16:00,43.9,35.8,29.98,West,277,3.5,3.5,73,0.00,CLR,,0.00,WeatherDisplay:10.37,2013-05-20 08:16:00,
2013-05-20 02:21:00,43.9,36.1,29.98,West,261,2.3,2.3,74,0.00,CLR,,0.00,WeatherDisplay:10.37,2013-05-20 08:21:00,
2013-05-20 02:26:00,43.8,36.0,29.98,WNW,303,3.5,3.5,74,0.00,CLR,,0.00,WeatherDisplay:10.37,2013-05-20 08:26:00,
2013-05-20 02:31:00,43.8,36.0,29.98,West,261,4.6,4.6,74,0.00,CLR,,0.00,WeatherDisplay:10.37,2013-05-20 08:31:00,
2013-05-20 02:36:00,43.8,36.4,29.99,WNW,299,5.8,5.8,75,0.00,CLR,,0.00,WeatherDisplay:10.37,2013-05-20 08:36:00,
2013-05-20 02:41:00,43.8,36.4,29.98,West,269,3.0,3.0,75,0.00,CLR,,0.00,WeatherDisplay:10.37,2013-05-20 08:41:00,
2013-05-20 02:46:00,43.8,36.4,29.98,WNW,298,8.1,8.1,75,0.00,CLR,,0.00,WeatherDisplay:10.37,2013-05-20 08:46:00,
2013-05-20 02:51:00,43.8,36.4,29.98,WNW,299,5.0,5.0,75,0.00,CLR,,0.00,WeatherDisplay:10.37,2013-05-20 08:51:00,
2013-05-20 02:56:00,43.9,36.5,29.99,WSW,247,3.5,3.5,75,0.00,CLR,,0.00,WeatherDisplay:10.37,2013-05-20 08:56:00,
2013-05-20 03:01:00,43.9,36.8,29.99,WSW,258,5.8,5.8,76,0.00,CLR,,0.00,WeatherDisplay:10.37,2013-05-20 09:01:00,
2013-05-20 03:06:00,43.8,37.4,29.98,West,264,2.3,2.3,78,0.00,CLR,,0.00,WeatherDisplay:10.37,2013-05-20 09:06:00,
2013-05-20 03:11:00,43.5,37.4,29.98,NW,308,5.8,5.8,79,0.00,CLR,,0.00,WeatherDisplay:10.37,2013-05-20 09:11:00,
2013-05-20 03:16:00,43.2,37.4,29.98,West,263,5.8,5.8,80,0.00,CLR,,0.00,WeatherDisplay:10.37,2013-05-20 09:16:00,
2013-05-20 03:21:00,42.9,37.5,29.99,WNW,285,8.1,8.1,81,0.00,CLR,,0.00,WeatherDisplay:10.37,2013-05-20 09:21:00,
2013-05-20 03:26:00,42.6,37.5,29.98,WSW,255,4.0,4.0,82,0.00,CLR,,0.00,WeatherDisplay:10.37,2013-05-20 09:26:00,
2013-05-20 03:31:00,42.4,37.3,29.98,NW,317,5.8,5.8,82,0.00,CLR,,0.00,WeatherDisplay:10.37,2013-05-20 09:31:00,
2013-05-20 03:36:00,42.2,36.5,29.98,NW,304,9.2,9.2,80,0.00,CLR,,0.00,WeatherDisplay:10.37,2013-05-20 09:36:00,
2013-05-20 03:41:00,42.0,36.9,29.98,West,267,3.5,3.5,82,0.00,CLR,,0.00,WeatherDisplay:10.37,2013-05-20 09:41:00,
2013-05-20 03:46:00,41.9,36.5,29.98,WNW,295,10.4,10.4,81,0.00,CLR,,0.00,WeatherDisplay:10.37,2013-05-20 09:46:00,
2013-05-20 03:51:00,41.7,36.3,29.99,WNW,285,5.8,5.8,81,0.00,CLR,,0.00,WeatherDisplay:10.37,2013-05-20 09:51:00,
2013-05-20 03:56:00,41.6,36.2,29.99,WNW,298,3.5,3.5,81,0.00,CLR,,0.00,WeatherDisplay:10.37,2013-05-20 09:56:00,
2013-05-20 04:01:00,41.6,36.2,29.99,WSW,245,3.5,3.5,81,0.00,CLR,,0.00,WeatherDisplay:10.37,2013-05-20 10:01:00,
2013-05-20 04:06:00,41.6,36.2,29.99,WSW,250,6.9,6.9,81,0.00,CLR,,0.00,WeatherDisplay:10.37,2013-05-20 10:06:00,
2013-05-20 04:11:00,41.6,35.9,29.99,WSW,242,6.9,6.9,80,0.00,CLR,,0.00,WeatherDisplay:10.37,2013-05-20 10:11:00,
2013-05-20 04:16:00,41.6,35.9,29.99,SSW,202,4.6,4.6,80,0.00,CLR,,0.00,WeatherDisplay:10.37,2013-05-20 10:16:00,
2013-05-20 04:21:00,41.7,36.3,29.99,WSW,250,3.5,3.5,81,0.00,CLR,,0.00,WeatherDisplay:10.37,2013-05-20 10:21:00,
2013-05-20 04:26:00,41.6,35.9,29.99,WSW,238,8.1,8.1,80,0.00,CLR,,0.00,WeatherDisplay:10.37,2013-05-20 10:26:00,
2013-05-20 04:31:00,41.7,36.0,29.99,NW,321,3.5,3.5,80,0.00,CLR,,0.00,WeatherDisplay:10.37,2013-05-20 10:31:00,
2013-05-20 04:36:00,41.7,36.3,29.99,WSW,256,3.5,3.5,81,0.00,CLR,,0.00,WeatherDisplay:10.37,2013-05-20 10:36:00,
2013-05-20 04:41:00,41.8,36.7,29.99,WNW,292,4.6,4.6,82,0.00,CLR,,0.00,WeatherDisplay:10.37,2013-05-20 10:41:00,
2013-05-20 04:46:00,41.8,36.7,29.99,WNW,292,0.0,0.0,82,0.00,CLR,,0.00,WeatherDisplay:10.37,2013-05-20 10:46:00,
2013-05-20 04:51:00,41.8,36.4,29.99,WSW,251,5.8,5.8,81,0.00,CLR,,0.00,WeatherDisplay:10.37,2013-05-20 10:51:00,
2013-05-20 04:56:00,41.8,36.4,29.99,WNW,294,8.1,8.1,81,0.00,CLR,,0.00,WeatherDisplay:10.37,2013-05-20 10:56:00,
2013-05-20 05:01:00,41.9,36.5,29.99,NW,321,2.3,2.3,81,0.00,CLR,,0.00,WeatherDisplay:10.37,2013-05-20 11:01:00,
2013-05-20 05:06:00,41.9,36.8,30.00,NNE,14,1.1,1.1,82,0.00,CLR,,0.00,WeatherDisplay:10.37,2013-05-20 11:06:00,
2013-05-20 05:11:00,41.8,36.1,29.99,NNW,328,3.5,3.5,80,0.00,CLR,,0.00,WeatherDisplay:10.37,2013-05-20 11:11:00,
2013-05-20 05:16:00,41.9,36.5,30.00,WSW,237,6.9,6.9,81,0.00,CLR,,0.00,WeatherDisplay:10.37,2013-05-20 11:16:00,
2013-05-20 05:21:00,42.0,37.2,29.99,North,5,2.0,2.0,83,0.00,CLR,,0.00,WeatherDisplay:10.37,2013-05-20 11:21:00,
2013-05-20 05:26:00,42.0,36.6,29.99,WNW,292,3.5,3.5,81,0.00,CLR,,0.00,WeatherDisplay:10.37,2013-05-20 11:26:00,
2013-05-20 05:31:00,42.0,36.6,29.99,NW,317,3.5,3.5,81,0.00,CLR,,0.00,WeatherDisplay:10.37,2013-05-20 11:31:00,
2013-05-20 05:36:00,42.1,37.0,29.99,NE,54,2.3,2.3,82,0.00,CLR,,0.00,WeatherDisplay:10.37,2013-05-20 11:36:00,
2013-05-20 05:41:00,42.1,37.6,29.99,NW,304,2.3,2.3,84,0.00,CLR,,0.00,WeatherDisplay:10.37,2013-05-20 11:41:00,
2013-05-20 05:46:00,42.0,36.9,29.99,NW,317,4.6,4.6,82,0.00,CLR,,0.00,WeatherDisplay:10.37,2013-05-20 11:46:00,
2013-05-20 05:51:00,42.1,37.3,29.99,NNE,30,3.5,3.5,83,0.00,CLR,,0.00,WeatherDisplay:10.37,2013-05-20 11:51:00,
2013-05-20 05:56:00,42.1,37.6,29.99,NNE,31,2.3,2.3,84,0.00,CLR,,0.00,WeatherDisplay:10.37,2013-05-20 11:56:00,
2013-05-20 06:01:00,41.9,38.0,29.99,NE,34,3.0,3.0,86,0.00,CLR,,0.00,WeatherDisplay:10.37,2013-05-20 12:01:00,
2013-05-20 06:06:00,41.7,37.8,29.99,ENE,57,2.3,2.3,86,0.00,CLR,,0.00,WeatherDisplay:10.37,2013-05-20 12:06:00,
2013-05-20 06:11:00,41.6,38.0,29.99,East,93,3.5,3.5,87,0.00,CLR,,0.00,WeatherDisplay:10.37,2013-05-20 12:11:00,
2013-05-20 06:16:00,41.5,38.2,29.99,NNE,23,1.1,1.1,88,0.00,CLR,,0.00,WeatherDisplay:10.37,2013-05-20 12:16:00,
2013-05-20 06:21:00,41.3,38.0,29.99,NNW,346,3.5,3.5,88,0.00,CLR,,0.00,WeatherDisplay:10.37,2013-05-20 12:21:00,
2013-05-20 06:26:00,41.3,38.0,29.99,ESE,109,1.1,0.0,88,0.00,CLR,,0.00,WeatherDisplay:10.37,2013-05-20 12:26:00,
2013-05-20 06:31:00,41.3,38.0,29.99,ESE,109,0.0,0.1,88,0.00,CLR,,0.00,WeatherDisplay:10.37,2013-05-20 12:31:00,
2013-05-20 06:36:00,41.4,38.1,29.99,NNE,31,2.0,2.0,88,0.00,CLR,,0.00,WeatherDisplay:10.37,2013-05-20 12:36:00,
2013-05-20 06:41:00,41.4,38.4,30.00,NE,35,3.0,3.0,89,0.00,CLR,,0.00,WeatherDisplay:10.37,2013-05-20 12:41:00,
2013-05-20 06:46:00,41.5,38.5,29.99,East,100,2.3,2.3,89,0.00,CLR,,0.00,WeatherDisplay:10.37,2013-05-20 12:46:00,
2013-05-20 06:51:00,41.5,38.5,30.00,East,100,1.1,0.0,89,0.00,CLR,,0.00,WeatherDisplay:10.37,2013-05-20 12:51:00,
2013-05-20 06:56:00,41.5,38.5,30.00,East,86,1.0,1.0,89,0.00,CLR,,0.00,WeatherDisplay:10.37,2013-05-20 12:56:00,
2013-05-20 07:01:00,41.5,38.5,30.00,ENE,78,3.5,3.5,89,0.00,CLR,,0.00,WeatherDisplay:10.37,2013-05-20 13:01:00,
2013-05-20 07:06:00,41.6,38.6,30.00,ENE,78,0.0,0.0,89,0.00,CLR,,0.00,WeatherDisplay:10.37,2013-05-20 13:06:00,
2013-05-20 07:11:00,41.7,38.4,30.00,NNW,344,0.0,0.0,88,0.00,CLR,,0.00,WeatherDisplay:10.37,2013-05-20 13:11:00,
2013-05-20 07:16:00,41.8,38.5,30.00,NNW,344,0.0,0.0,88,0.00,CLR,,0.00,WeatherDisplay:10.37,2013-05-20 13:16:00,
2013-05-20 07:21:00,42.0,38.7,30.00,ENE,57,3.5,3.5,88,0.00,CLR,,0.00,WeatherDisplay:10.37,2013-05-20 13:21:00,
2013-05-20 07:26:00,42.2,39.2,30.01,NE,40,0.0,0.0,89,0.00,CLR,,0.00,WeatherDisplay:10.37,2013-05-20 13:26:00,
2013-05-20 07:31:00,42.3,39.3,30.01,East,84,1.1,1.1,89,0.00,CLR,,0.00,WeatherDisplay:10.37,2013-05-20 13:31:00,
2013-05-20 07:36:00,42.4,39.4,30.01,NNE,22,3.5,3.5,89,0.00,CLR,,0.00,WeatherDisplay:10.37,2013-05-20 13:36:00,
2013-05-20 07:41:00,42.5,39.5,30.01,NE,52,4.6,4.6,89,0.00,CLR,,0.00,WeatherDisplay:10.37,2013-05-20 13:41:00,
2013-05-20 07:46:00,42.5,39.8,30.01,ENE,57,1.1,1.1,90,0.00,CLR,,0.00,WeatherDisplay:10.37,2013-05-20 13:46:00,
2013-05-20 07:51:00,42.7,40.0,30.01,NNE,23,1.1,0.0,90,0.00,CLR,,0.00,WeatherDisplay:10.37,2013-05-20 13:51:00,
2013-05-20 07:56:00,42.8,40.1,30.01,NE,46,2.3,2.3,90,0.00,CLR,,0.00,WeatherDisplay:10.37,2013-05-20 13:56:00,
2013-05-20 08:01:00,42.9,39.6,30.01,WNW,300,3.5,3.5,88,0.00,CLR,,0.00,WeatherDisplay:10.37,2013-05-20 14:01:00,
2013-05-20 08:06:00,43.1,39.2,30.01,NE,44,3.5,3.5,86,0.00,CLR,,0.00,WeatherDisplay:10.37,2013-05-20 14:06:00,
2013-05-20 08:11:00,43.3,40.0,30.02,NNE,23,4.6,4.6,88,0.00,CLR,,0.00,WeatherDisplay:10.37,2013-05-20 14:11:00,
2013-05-20 08:16:00,43.5,39.9,30.02,NW,319,5.8,5.8,87,0.00,CLR,,0.00,WeatherDisplay:10.37,2013-05-20 14:16:00,
2013-05-20 08:21:00,43.6,39.7,30.02,NE,40,3.5,3.5,86,0.00,CLR,,0.00,WeatherDisplay:10.37,2013-05-20 14:21:00,
2013-05-20 08:26:00,43.9,40.0,30.02,NW,304,3.5,3.5,86,0.00,CLR,,0.00,WeatherDisplay:10.37,2013-05-20 14:26:00,
2013-05-20 08:31:00,43.9,39.1,30.02,NNE,25,3.5,3.5,83,0.00,CLR,,0.00,WeatherDisplay:10.37,2013-05-20 14:31:00,
2013-05-20 08:36:00,44.1,39.9,30.02,North,9,3.5,3.5,85,0.00,CLR,,0.00,WeatherDisplay:10.37,2013-05-20 14:36:00,
2013-05-20 08:41:00,44.2,39.4,30.02,WNW,302,2.3,2.3,83,0.00,CLR,,0.00,WeatherDisplay:10.37,2013-05-20 14:41:00,
2013-05-20 08:46:00,44.4,39.6,30.03,NW,313,1.1,1.1,83,0.00,CLR,,0.00,WeatherDisplay:10.37,2013-05-20 14:46:00,
2013-05-20 08:51:00,44.5,39.0,30.03,NW,304,9.0,9.0,81,0.00,CLR,,0.00,WeatherDisplay:10.37,2013-05-20 14:51:00,
2013-05-20 08:56:00,44.5,39.0,30.03,NW,310,1.1,1.1,81,0.00,CLR,,0.00,WeatherDisplay:10.37,2013-05-20 14:56:00,
2013-05-20 09:01:00,44.4,38.9,30.03,WNW,286,4.6,4.6,81,0.00,CLR,,0.00,WeatherDisplay:10.37,2013-05-20 15:01:00,
2013-05-20 09:06:00,44.4,38.9,30.03,NNW,344,5.8,5.8,81,0.00,CLR,,0.00,WeatherDisplay:10.37,2013-05-20 15:06:00,
2013-05-20 09:11:00,44.3,38.5,30.04,WNW,296,5.8,5.8,80,0.00,CLR,,0.00,WeatherDisplay:10.37,2013-05-20 15:11:00,
2013-05-20 09:16:00,44.1,38.6,30.04,NNW,338,6.0,6.0,81,0.00,CLR,,0.00,WeatherDisplay:10.37,2013-05-20 15:16:00,
2013-05-20 09:21:00,44.1,39.0,30.04,NW,311,5.8,5.8,82,0.00,CLR,,0.00,WeatherDisplay:10.37,2013-05-20 15:21:00,
2013-05-20 09:26:00,44.2,39.4,30.04,NW,319,3.5,3.5,83,0.00,CLR,,0.00,WeatherDisplay:10.37,2013-05-20 15:26:00,
2013-05-20 09:31:00,44.3,39.8,30.04,NW,306,4.6,4.6,84,0.00,CLR,,0.00,WeatherDisplay:10.37,2013-05-20 15:31:00,
2013-05-20 09:36:00,44.4,39.6,30.04,WNW,302,3.5,3.5,83,0.00,CLR,,0.00,WeatherDisplay:10.37,2013-05-20 15:36:00,
2013-05-20 09:41:00,44.4,39.9,30.04,WNW,300,4.6,4.6,84,0.00,CLR,,0.00,WeatherDisplay:10.37,2013-05-20 15:41:00,
2013-05-20 09:46:00,44.5,39.7,30.04,NW,311,6.0,6.0,83,0.00,CLR,,0.00,WeatherDisplay:10.37,2013-05-20 15:46:00,
2013-05-20 09:51:00,44.7,39.5,30.04,NW,313,5.8,5.8,82,0.00,CLR,,0.00,WeatherDisplay:10.37,2013-05-20 15:51:00,
2013-05-20 09:56:00,44.9,39.1,30.04,NNW,327,6.9,6.9,80,0.00,CLR,,0.00,WeatherDisplay:10.37,2013-05-20 15:56:00,
2013-05-20 10:01:00,45.3,39.8,30.04,NW,306,5.0,5.0,81,0.00,CLR,,0.00,WeatherDisplay:10.37,2013-05-20 16:01:00,
2013-05-20 10:06:00,45.7,39.9,30.04,NW,322,5.8,5.8,80,0.00,CLR,,0.00,WeatherDisplay:10.37,2013-05-20 16:06:00,
2013-05-20 10:11:00,46.0,39.9,30.04,WNW,302,3.5,3.5,79,0.00,CLR,,0.00,WeatherDisplay:10.37,2013-05-20 16:11:00,
2013-05-20 10:16:00,46.2,40.4,30.04,NW,320,4.6,4.6,80,0.00,CLR,,0.00,WeatherDisplay:10.37,2013-05-20 16:16:00,
2013-05-20 10:21:00,46.6,40.1,30.05,NW,315,5.8,5.8,78,0.00,CLR,,0.00,WeatherDisplay:10.37,2013-05-20 16:21:00,
2013-05-20 10:26:00,47.0,40.8,30.04,NW,309,4.6,4.6,79,0.00,CLR,,0.00,WeatherDisplay:10.37,2013-05-20 16:26:00,
2013-05-20 10:31:00,47.2,40.7,30.04,NNE,12,1.1,1.1,78,0.00,CLR,,0.00,WeatherDisplay:10.37,2013-05-20 16:31:00,
2013-05-20 10:36:00,47.6,41.4,30.05,North,360,3.5,3.6,79,0.00,CLR,,0.00,WeatherDisplay:10.37,2013-05-20 16:36:00,
2013-05-20 10:41:00,47.6,39.7,30.04,WNW,299,6.9,6.9,74,0.00,CLR,,0.00,WeatherDisplay:10.37,2013-05-20 16:41:00,
2013-05-20 10:46:00,47.7,40.5,30.04,NW,305,6.9,6.9,76,0.00,CLR,,0.00,WeatherDisplay:10.37,2013-05-20 16:46:00,
2013-05-20 10:51:00,48.3,40.7,30.04,WNW,303,9.0,9.0,75,0.00,CLR,,0.00,WeatherDisplay:10.37,2013-05-20 16:51:00,
2013-05-20 10:56:00,48.5,40.2,30.04,NW,305,4.6,4.6,73,0.00,CLR,,0.00,WeatherDisplay:10.37,2013-05-20 16:56:00,
2013-05-20 11:01:00,48.8,39.8,30.04,WNW,303,6.9,6.9,71,0.00,CLR,,0.00,WeatherDisplay:10.37,2013-05-20 17:01:00,
2013-05-20 11:06:00,49.1,40.5,30.04,NNW,333,4.6,4.6,72,0.00,CLR,,0.00,WeatherDisplay:10.37,2013-05-20 17:06:00,
2013-05-20 11:11:00,50.0,41.0,30.04,NW,315,9.2,9.2,71,0.00,CLR,,0.00,WeatherDisplay:10.37,2013-05-20 17:11:00,
2013-05-20 11:16:00,50.3,40.9,30.04,WNW,301,3.5,3.5,70,0.00,CLR,,0.00,WeatherDisplay:10.37,2013-05-20 17:16:00,
2013-05-20 11:21:00,50.4,40.2,30.04,NNE,30,5.8,5.8,68,0.00,CLR,,0.00,WeatherDisplay:10.37,2013-05-20 17:21:00,
2013-05-20 11:26:00,50.4,40.2,30.04,NE,48,3.5,3.5,68,0.00,CLR,,0.00,WeatherDisplay:10.37,2013-05-20 17:26:00,
2013-05-20 11:31:00,50.5,40.3,30.05,NW,311,3.0,3.0,68,0.00,CLR,,0.00,WeatherDisplay:10.37,2013-05-20 17:31:00,
2013-05-20 11:36:00,50.5,40.3,30.04,ENE,64,3.5,3.5,68,0.00,CLR,,0.00,WeatherDisplay:10.37,2013-05-20 17:36:00,
2013-05-20 11:41:00,50.5,40.3,30.04,NNW,345,3.5,3.5,68,0.00,CLR,,0.00,WeatherDisplay:10.37,2013-05-20 17:41:00,
2013-05-20 11:46:00,50.8,39.8,30.04,ESE,109,1.1,1.1,66,0.00,CLR,,0.00,WeatherDisplay:10.37,2013-05-20 17:46:00,
2013-05-20 11:51:00,50.9,39.9,30.04,WNW,286,4.6,4.6,66,0.00,CLR,,0.00,WeatherDisplay:10.37,2013-05-20 17:51:00,
2013-05-20 11:56:00,50.7,39.7,30.04,WNW,284,3.5,3.5,66,0.00,CLR,,0.00,WeatherDisplay:10.37,2013-05-20 17:56:00,
2013-05-20 12:01:00,50.5,39.9,30.04,WNW,284,3.5,3.5,67,0.00,CLR,,0.00,WeatherDisplay:10.37,2013-05-20 18:01:00,
2013-05-20 12:06:00,50.4,42.1,30.04,NNW,346,4.6,4.6,73,0.01,RA,,0.01,WeatherDisplay:10.37,2013-05-20 18:06:00,
2013-05-20 12:11:00,50.2,44.6,30.05,North,5,3.5,3.5,81,0.02,RA,,0.02,WeatherDisplay:10.37,2013-05-20 18:11:00,
2013-05-20 12:16:00,49.6,42.7,30.05,WSW,251,2.3,2.3,77,0.02,RA,,0.02,WeatherDisplay:10.37,2013-05-20 18:16:00,
2013-05-20 12:21:00,49.4,42.5,30.05,WSW,257,2.3,2.3,77,0.02,CLR,,0.02,WeatherDisplay:10.37,2013-05-20 18:21:00,
2013-05-20 12:26:00,49.6,44.0,30.05,WNW,288,2.3,2.3,81,0.02,CLR,,0.02,WeatherDisplay:10.37,2013-05-20 18:26:00,
2013-05-20 12:31:00,49.8,41.1,30.05,West,279,3.5,3.5,72,0.02,CLR,,0.02,WeatherDisplay:10.37,2013-05-20 18:31:00,
2013-05-20 12:36:00,50.3,42.0,30.05,NW,310,2.3,2.3,73,0.02,CLR,,0.02,WeatherDisplay:10.37,2013-05-20 18:36:00,
2013-05-20 12:41:00,50.8,42.5,30.05,NW,320,1.1,1.1,73,0.02,CLR,,0.02,WeatherDisplay:10.37,2013-05-20 18:41:00,
2013-05-20 12:46:00,51.2,41.4,30.04,NW,311,2.3,2.3,69,0.02,CLR,,0.02,WeatherDisplay:10.37,2013-05-20 18:46:00,
2013-05-20 12:51:00,51.4,41.2,30.04,NW,315,8.1,8.1,68,0.02,CLR,,0.02,WeatherDisplay:10.37,2013-05-20 18:51:00,
2013-05-20 12:56:00,51.6,42.5,30.04,NW,311,3.5,3.5,71,0.02,CLR,,0.02,WeatherDisplay:10.37,2013-05-20 18:56:00,
2013-05-20 13:01:00,51.7,41.5,30.04,NNW,345,5.8,5.8,68,0.02,CLR,,0.02,WeatherDisplay:10.37,2013-05-20 19:01:00,
2013-05-20 13:06:00,52.0,41.4,30.04,NE,34,3.5,3.5,67,0.01,CLR,,0.02,WeatherDisplay:10.37,2013-05-20 19:06:00,
2013-05-20 13:11:00,52.4,42.1,30.03,WNW,300,3.5,3.5,68,0.00,CLR,,0.02,WeatherDisplay:10.37,2013-05-20 19:11:00,
2013-05-20 13:16:00,53.0,42.7,30.04,WNW,290,8.1,8.1,68,0.00,CLR,,0.02,WeatherDisplay:10.37,2013-05-20 19:16:00,
2013-05-20 13:21:00,52.9,41.0,30.04,WNW,301,7.0,7.0,64,0.00,CLR,,0.02,WeatherDisplay:10.37,2013-05-20 19:21:00,
2013-05-20 13:26:00,52.5,43.0,30.03,NW,326,4.6,4.6,70,0.00,CLR,,0.02,WeatherDisplay:10.37,2013-05-20 19:26:00,
2013-05-20 13:31:00,52.1,43.3,30.04,NW,317,2.3,2.3,72,0.00,CLR,,0.02,WeatherDisplay:10.37,2013-05-20 19:31:00,
2013-05-20 13:36:00,51.7,42.6,30.03,NW,305,3.5,3.5,71,0.00,CLR,,0.02,WeatherDisplay:10.37,2013-05-20 19:36:00,
2013-05-20 13:41:00,51.7,42.6,30.03,West,266,3.5,3.5,71,0.00,CLR,,0.02,WeatherDisplay:10.37,2013-05-20 19:41:00,
2013-05-20 13:46:00,52.3,43.9,30.03,West,261,4.6,4.6,73,0.00,CLR,,0.02,WeatherDisplay:10.37,2013-05-20 19:46:00,
2013-05-20 13:51:00,53.2,44.8,30.02,NNE,28,2.3,2.3,73,0.00,CLR,,0.02,WeatherDisplay:10.37,2013-05-20 19:51:00,
2013-05-20 13:56:00,54.2,42.7,30.02,WNW,300,11.5,11.5,65,0.00,CLR,,0.02,WeatherDisplay:10.37,2013-05-20 19:56:00,
2013-05-20 14:01:00,54.2,41.5,30.03,NNW,336,8.1,8.1,62,0.00,CLR,,0.02,WeatherDisplay:10.37,2013-05-20 20:01:00,
2013-05-20 14:06:00,54.1,42.2,30.03,WNW,303,4.6,4.6,64,0.00,CLR,,0.02,WeatherDisplay:10.37,2013-05-20 20:06:00,
2013-05-20 14:11:00,54.9,42.5,30.03,WNW,298,6.0,6.0,63,0.00,CLR,,0.02,WeatherDisplay:10.37,2013-05-20 20:11:00,
2013-05-20 14:16:00,55.1,41.0,30.03,NE,41,2.3,2.3,59,0.00,CLR,,0.02,WeatherDisplay:10.37,2013-05-20 20:16:00,
2013-05-20 14:21:00,54.8,41.6,30.02,WNW,298,6.9,6.9,61,0.00,CLR,,0.02,WeatherDisplay:10.37,2013-05-20 20:21:00,
2013-05-20 14:26:00,53.6,41.3,30.03,NW,325,10.4,10.4,63,0.00,CLR,,0.02,WeatherDisplay:10.37,2013-05-20 20:26:00,
2013-05-20 14:31:00,52.4,41.4,30.03,NW,314,9.2,9.2,66,0.00,CLR,,0.02,WeatherDisplay:10.37,2013-05-20 20:31:00,
2013-05-20 14:36:00,51.7,43.0,30.03,WNW,292,11.5,11.5,72,0.00,CLR,,0.02,WeatherDisplay:10.37,2013-05-20 20:36:00,
2013-05-20 14:41:00,50.6,43.3,30.04,NW,323,10.4,10.4,76,0.00,CLR,,0.02,WeatherDisplay:10.37,2013-05-20 20:41:00,
2013-05-20 14:46:00,49.8,43.5,30.04,NW,308,6.9,6.9,79,0.00,CLR,,0.02,WeatherDisplay:10.37,2013-05-20 20:46:00,
2013-05-20 14:51:00,49.2,43.6,30.04,WNW,300,8.1,8.1,81,0.00,CLR,,0.02,WeatherDisplay:10.37,2013-05-20 20:51:00,
2013-05-20 14:56:00,48.7,43.8,30.04,NW,309,6.9,6.9,83,0.01,RA,,0.03,WeatherDisplay:10.37,2013-05-20 20:56:00,
2013-05-20 15:01:00,48.8,44.8,30.04,NW,311,3.5,3.5,86,0.01,RA,,0.03,WeatherDisplay:10.37,2013-05-20 21:01:00,
2013-05-20 15:06:00,48.9,44.3,30.04,WSW,248,2.3,2.3,84,0.01,CLR,,0.03,WeatherDisplay:10.37,2013-05-20 21:06:00,
2013-05-20 15:11:00,49.7,45.1,30.04,NW,309,8.1,8.1,84,0.01,CLR,,0.03,WeatherDisplay:10.37,2013-05-20 21:11:00,
2013-05-20 15:16:00,50.6,43.0,30.04,NW,315,5.8,5.8,75,0.01,CLR,,0.03,WeatherDisplay:10.37,2013-05-20 21:16:00,
2013-05-20 15:21:00,51.6,43.9,30.03,WNW,303,4.6,4.6,75,0.01,CLR,,0.03,WeatherDisplay:10.37,2013-05-20 21:21:00,
2013-05-20 15:26:00,52.5,46.2,30.03,WNW,293,4.0,4.0,79,0.01,CLR,,0.03,WeatherDisplay:10.37,2013-05-20 21:26:00,
2013-05-20 15:31:00,53.6,44.4,30.03,NW,305,8.1,8.1,71,0.01,CLR,,0.03,WeatherDisplay:10.37,2013-05-20 21:31:00,
2013-05-20 15:36:00,54.3,44.0,30.03,WNW,294,7.0,7.0,68,0.01,CLR,,0.03,WeatherDisplay:10.37,2013-05-20 21:36:00,
2013-05-20 15:41:00,54.8,43.3,30.03,West,261,6.9,6.9,65,0.01,CLR,,0.03,WeatherDisplay:10.37,2013-05-20 21:41:00,
2013-05-20 15:46:00,55.3,43.7,30.03,NW,319,9.2,9.2,65,0.01,CLR,,0.03,WeatherDisplay:10.37,2013-05-20 21:46:00,
2013-05-20 15:51:00,55.6,42.8,30.02,NW,316,9.2,9.2,62,0.01,CLR,,0.03,WeatherDisplay:10.37,2013-05-20 21:51:00,
2013-05-20 15:56:00,55.7,43.7,30.02,NW,308,10.4,10.4,64,0.00,CLR,,0.03,WeatherDisplay:10.37,2013-05-20 21:56:00,
2013-05-20 16:01:00,55.9,42.6,30.02,NW,319,9.2,9.2,61,0.00,CLR,,0.03,WeatherDisplay:10.37,2013-05-20 22:01:00,
2013-05-20 16:06:00,55.9,42.6,30.02,West,269,6.9,6.9,61,0.00,CLR,,0.03,WeatherDisplay:10.37,2013-05-20 22:06:00,
2013-05-20 16:11:00,55.8,42.5,30.02,WSW,254,6.9,6.9,61,0.00,CLR,,0.03,WeatherDisplay:10.37,2013-05-20 22:11:00,
2013-05-20 16:16:00,55.9,41.8,30.01,SW,234,4.6,4.6,59,0.00,CLR,,0.03,WeatherDisplay:10.37,2013-05-20 22:16:00,
2013-05-20 16:21:00,56.2,43.3,30.01,NW,313,5.0,5.0,62,0.00,CLR,,0.03,WeatherDisplay:10.37,2013-05-20 22:21:00,
2013-05-20 16:26:00,56.2,41.6,30.01,NW,319,9.2,9.2,58,0.00,CLR,,0.03,WeatherDisplay:10.37,2013-05-20 22:26:00,
2013-05-20 16:31:00,56.3,41.3,30.01,WNW,297,8.1,8.1,57,0.00,CLR,,0.03,WeatherDisplay:10.37,2013-05-20 22:31:00,
2013-05-20 16:36:00,56.3,41.3,30.01,NW,319,10.4,10.4,57,0.00,CLR,,0.03,WeatherDisplay:10.37,2013-05-20 22:36:00,
2013-05-20 16:41:00,56.1,41.5,30.01,NNW,327,6.9,6.9,58,0.00,CLR,,0.03,WeatherDisplay:10.37,2013-05-20 22:41:00,
2013-05-20 16:46:00,56.2,42.5,30.01,NW,315,9.2,9.2,60,0.01,RA,,0.04,WeatherDisplay:10.37,2013-05-20 22:46:00,
2013-05-20 16:51:00,56.1,41.1,30.01,NNW,331,11.5,11.5,57,0.01,RA,,0.04,WeatherDisplay:10.37,2013-05-20 22:51:00,
2013-05-20 16:56:00,56.2,40.7,30.01,NNW,328,10.4,10.4,56,0.01,,,0.04,WeatherDisplay:10.37,2013-05-20 22:56:00,
2013-05-20 17:01:00,56.0,41.4,30.01,NW,309,11.5,11.5,58,0.01,CLR,,0.04,WeatherDisplay:10.37,2013-05-20 23:01:00,
2013-05-20 17:06:00,55.8,42.1,30.00,West,261,4.0,4.0,60,0.01,CLR,,0.04,WeatherDisplay:10.37,2013-05-20 23:06:00,
2013-05-20 17:11:00,56.2,41.2,30.00,NW,307,8.1,8.1,57,0.01,CLR,,0.04,WeatherDisplay:10.37,2013-05-20 23:11:00,
2013-05-20 17:16:00,56.4,41.3,30.00,WNW,302,8.1,8.1,57,0.01,CLR,,0.04,WeatherDisplay:10.37,2013-05-20 23:16:00,
2013-05-20 17:21:00,56.5,42.3,30.01,NW,316,9.2,9.2,59,0.01,CLR,,0.04,WeatherDisplay:10.37,2013-05-20 23:21:00,
2013-05-20 17:26:00,56.6,42.0,30.01,NW,323,1.1,1.1,58,0.01,CLR,,0.04,WeatherDisplay:10.37,2013-05-20 23:26:00,
2013-05-20 17:31:00,57.0,41.0,30.01,WNW,303,10.4,10.4,55,0.01,CLR,,0.04,WeatherDisplay:10.37,2013-05-20 23:31:00,
2013-05-20 17:36:00,56.4,41.3,30.01,West,263,1.1,1.1,57,0.01,CLR,,0.04,WeatherDisplay:10.37,2013-05-20 23:36:00,
2013-05-20 17:41:00,55.9,40.9,30.01,West,270,2.3,2.3,57,0.01,CLR,,0.04,WeatherDisplay:10.37,2013-05-20 23:41:00,
2013-05-20 17:46:00,55.6,40.6,30.01,WSW,254,8.1,8.1,57,0.00,CLR,,0.04,WeatherDisplay:10.37,2013-05-20 23:46:00,
2013-05-20 17:51:00,55.5,41.0,30.01,West,276,3.5,3.5,58,0.00,CLR,,0.04,WeatherDisplay:10.37,2013-05-20 23:51:00,
2013-05-20 17:56:00,55.6,41.5,30.01,West,278,5.8,5.8,59,0.00,CLR,,0.04,WeatherDisplay:10.37,2013-05-20 23:56:00,
2013-05-20 18:01:00,55.8,41.7,30.01,SW,223,5.8,5.8,59,0.00,CLR,,0.04,WeatherDisplay:10.37,2013-05-21 00:01:00,
2013-05-20 18:06:00,56.0,41.4,30.01,NW,305,7.0,7.0,58,0.00,CLR,,0.04,WeatherDisplay:10.37,2013-05-21 00:06:00,
2013-05-20 18:11:00,55.9,40.4,30.01,West,268,5.8,5.8,56,0.00,CLR,,0.04,WeatherDisplay:10.37,2013-05-21 00:11:00,
2013-05-20 18:16:00,55.9,40.9,30.01,WNW,302,10.4,10.4,57,0.00,CLR,,0.04,WeatherDisplay:10.37,2013-05-21 00:16:00,
2013-05-20 18:21:00,56.2,41.2,30.01,NNW,328,9.2,9.2,57,0.00,CLR,,0.04,WeatherDisplay:10.37,2013-05-21 00:21:00,
2013-05-20 18:26:00,56.3,41.3,30.01,WNW,300,10.4,10.4,57,0.00,CLR,,0.04,WeatherDisplay:10.37,2013-05-21 00:26:00,
2013-05-20 18:31:00,56.2,41.2,30.01,NW,306,6.9,6.9,57,0.00,CLR,,0.04,WeatherDisplay:10.37,2013-05-21 00:31:00,
2013-05-20 18:36:00,56.2,41.2,30.01,NW,325,4.6,4.6,57,0.00,CLR,,0.04,WeatherDisplay:10.37,2013-05-21 00:36:00,
2013-05-20 18:41:00,56.0,41.4,30.01,WSW,256,5.0,5.0,58,0.00,CLR,,0.04,WeatherDisplay:10.37,2013-05-21 00:41:00,
2013-05-20 18:46:00,55.7,41.6,30.01,NW,318,6.9,6.9,59,0.00,CLR,,0.04,WeatherDisplay:10.37,2013-05-21 00:46:00,
2013-05-20 18:51:00,55.1,40.1,30.01,West,275,4.0,4.0,57,0.00,CLR,,0.04,WeatherDisplay:10.37,2013-05-21 00:51:00,
2013-05-20 18:56:00,54.7,40.6,30.01,West,265,3.5,3.5,59,0.00,CLR,,0.04,WeatherDisplay:10.37,2013-05-21 00:56:00,
2013-05-20 19:01:00,54.4,40.8,30.01,WNW,296,4.6,4.6,60,0.00,CLR,,0.04,WeatherDisplay:10.37,2013-05-21 01:01:00,
2013-05-20 19:06:00,54.2,40.6,30.01,West,267,2.3,2.3,60,0.00,CLR,,0.04,WeatherDisplay:10.37,2013-05-21 01:06:00,
2013-05-20 19:11:00,53.9,40.8,30.01,NNW,329,5.8,5.8,61,0.00,CLR,,0.04,WeatherDisplay:10.37,2013-05-21 01:11:00,
2013-05-20 19:16:00,53.6,40.9,30.02,NW,311,8.1,8.1,62,0.00,CLR,,0.04,WeatherDisplay:10.37,2013-05-21 01:16:00,
2013-05-20 19:21:00,53.2,40.9,30.02,West,269,9.2,9.2,63,0.00,CLR,,0.04,WeatherDisplay:10.37,2013-05-21 01:21:00,
2013-05-20 19:26:00,52.8,42.1,30.02,WNW,297,5.8,5.8,67,0.00,CLR,,0.04,WeatherDisplay:10.37,2013-05-21 01:26:00,
2013-05-20 19:31:00,52.4,42.1,30.02,West,274,2.3,2.3,68,0.00,CLR,,0.04,WeatherDisplay:10.37,2013-05-21 01:31:00,
2013-05-20 19:36:00,52.1,42.6,30.02,WNW,298,4.6,4.6,70,0.00,CLR,,0.04,WeatherDisplay:10.37,2013-05-21 01:36:00,
2013-05-20 19:41:00,51.9,42.0,30.01,West,272,3.5,3.5,69,0.00,CLR,,0.04,WeatherDisplay:10.37,2013-05-21 01:41:00,
2013-05-20 19:46:00,51.8,41.2,30.02,WNW,292,5.8,5.8,67,0.00,CLR,,0.04,WeatherDisplay:10.37,2013-05-21 01:46:00,
2013-05-20 19:51:00,51.7,40.7,30.02,WNW,286,5.0,5.0,66,0.00,CLR,,0.04,WeatherDisplay:10.37,2013-05-21 01:51:00,
2013-05-20 19:56:00,51.6,40.6,30.02,WNW,288,3.5,3.5,66,0.00,CLR,,0.04,WeatherDisplay:10.37,2013-05-21 01:56:00,
2013-05-20 20:01:00,51.5,39.7,30.02,West,278,5.8,5.8,64,0.00,CLR,,0.04,WeatherDisplay:10.37,2013-05-21 02:01:00,
2013-05-20 20:06:00,51.4,40.0,30.02,NNW,327,3.5,3.5,65,0.00,CLR,,0.04,WeatherDisplay:10.37,2013-05-21 02:06:00,
2013-05-20 20:11:00,51.3,40.3,30.02,WSW,252,3.5,3.5,66,0.00,CLR,,0.04,WeatherDisplay:10.37,2013-05-21 02:11:00,
2013-05-20 20:16:00,51.2,40.6,30.02,WSW,238,3.5,3.5,67,0.00,CLR,,0.04,WeatherDisplay:10.37,2013-05-21 02:16:00,
2013-05-20 20:21:00,51.1,40.1,30.02,WNW,282,1.1,1.1,66,0.00,CLR,,0.04,WeatherDisplay:10.37,2013-05-21 02:21:00,
2013-05-20 20:26:00,50.9,40.3,30.02,West,272,0.0,0.0,67,0.00,CLR,,0.04,WeatherDisplay:10.37,2013-05-21 02:26:00,
2013-05-20 20:31:00,50.8,39.1,30.02,West,275,3.5,3.5,64,0.00,CLR,,0.04,WeatherDisplay:10.37,2013-05-21 02:31:00,
2013-05-20 20:36:00,50.8,39.1,30.02,WNW,283,2.3,2.3,64,0.00,CLR,,0.04,WeatherDisplay:10.37,2013-05-21 02:36:00,
2013-05-20 20:41:00,50.8,39.8,30.03,WNW,283,1.1,1.1,66,0.00,CLR,,0.04,WeatherDisplay:10.37,2013-05-21 02:41:00,
2013-05-20 20:46:00,50.7,40.9,30.03,SE,134,2.3,2.3,69,0.00,CLR,,0.04,WeatherDisplay:10.37,2013-05-21 02:46:00,
2013-05-20 20:51:00,50.4,41.7,30.03,ENE,77,1.1,1.1,72,0.00,CLR,,0.04,WeatherDisplay:10.37,2013-05-21 02:51:00,
2013-05-20 20:56:00,50.1,42.1,30.03,East,80,1.1,0.0,74,0.00,CLR,,0.04,WeatherDisplay:10.37,2013-05-21 02:56:00,
2013-05-20 21:01:00,49.9,42.3,30.03,East,80,0.0,0.0,75,0.00,CLR,,0.04,WeatherDisplay:10.37,2013-05-21 03:01:00,
2013-05-20 21:06:00,49.7,42.1,30.03,NNE,31,2.3,2.3,75,0.00,CLR,,0.04,WeatherDisplay:10.37,2013-05-21 03:06:00,
2013-05-20 21:11:00,49.5,41.9,30.03,North,5,1.0,0.0,75,0.00,CLR,,0.04,WeatherDisplay:10.37,2013-05-21 03:11:00,
2013-05-20 21:16:00,49.3,41.7,30.03,NNW,336,0.0,0.0,75,0.00,CLR,,0.04,WeatherDisplay:10.37,2013-05-21 03:16:00,
2013-05-20 21:21:00,49.0,41.4,30.03,NW,313,1.1,1.1,75,0.00,CLR,,0.04,WeatherDisplay:10.37,2013-05-21 03:21:00,
2013-05-20 21:26:00,48.8,41.9,30.03,NW,313,0.0,0.0,77,0.00,CLR,,0.04,WeatherDisplay:10.37,2013-05-21 03:26:00,
2013-05-20 21:31:00,48.6,41.7,30.03,NW,313,0.0,0.0,77,0.00,CLR,,0.04,WeatherDisplay:10.37,2013-05-21 03:31:00,
2013-05-20 21:36:00,48.5,42.0,30.02,NW,313,0.0,0.0,78,0.00,CLR,,0.04,WeatherDisplay:10.37,2013-05-21 03:36:00,
2013-05-20 21:41:00,48.4,41.9,30.02,NW,313,0.0,0.0,78,0.00,CLR,,0.04,WeatherDisplay:10.37,2013-05-21 03:41:00,
2013-05-20 21:46:00,48.3,41.8,30.02,NW,313,1.0,0.0,78,0.00,CLR,,0.04,WeatherDisplay:10.37,2013-05-21 03:46:00,
2013-05-20 21:51:00,48.3,41.8,30.02,East,99,2.3,2.3,78,0.00,CLR,,0.04,WeatherDisplay:10.37,2013-05-21 03:51:00,
2013-05-20 21:56:00,48.2,41.7,30.02,SE,126,1.1,1.1,78,0.00,CLR,,0.04,WeatherDisplay:10.37,2013-05-21 03:56:00,
2013-05-20 22:01:00,48.1,41.6,30.02,SE,126,0.0,0.0,78,0.00,CLR,,0.04,WeatherDisplay:10.37,2013-05-21 04:01:00,
2013-05-20 22:06:00,47.9,41.4,30.02,SE,126,0.0,0.0,78,0.00,CLR,,0.04,WeatherDisplay:10.37,2013-05-21 04:06:00,
2013-05-20 22:11:00,47.7,41.5,30.02,SE,126,0.0,0.0,79,0.00,CLR,,0.04,WeatherDisplay:10.37,2013-05-21 04:11:00,
2013-05-20 22:16:00,47.4,41.2,30.02,SE,126,0.0,0.0,79,0.00,CLR,,0.04,WeatherDisplay:10.37,2013-05-21 04:16:00,
2013-05-20 22:21:00,47.2,41.0,30.02,SE,126,0.0,0.0,79,0.00,CLR,,0.04,WeatherDisplay:10.37,2013-05-21 04:21:00,
2013-05-20 22:26:00,46.9,41.1,30.02,SE,126,0.0,0.0,80,0.00,CLR,,0.04,WeatherDisplay:10.37,2013-05-21 04:26:00,
2013-05-20 22:31:00,46.5,40.7,30.02,SE,126,0.0,0.0,80,0.00,CLR,,0.04,WeatherDisplay:10.37,2013-05-21 04:31:00,
2013-05-20 22:36:00,46.3,40.8,30.02,SE,126,0.0,0.0,81,0.00,CLR,,0.04,WeatherDisplay:10.37,2013-05-21 04:36:00,
2013-05-20 22:41:00,45.9,40.7,30.03,SE,126,0.0,0.0,82,0.00,CLR,,0.04,WeatherDisplay:10.37,2013-05-21 04:41:00,
2013-05-20 22:46:00,45.6,40.4,30.03,SE,126,0.0,0.0,82,0.00,CLR,,0.04,WeatherDisplay:10.37,2013-05-21 04:46:00,
2013-05-20 22:51:00,45.4,40.5,30.03,SE,126,0.0,0.0,83,0.00,CLR,,0.04,WeatherDisplay:10.37,2013-05-21 04:51:00,
2013-05-20 22:56:00,45.1,40.2,30.03,SE,126,0.0,0.0,83,0.00,CLR,,0.04,WeatherDisplay:10.37,2013-05-21 04:56:00,
2013-05-20 23:01:00,44.9,40.0,30.03,SE,126,0.0,0.0,83,0.00,CLR,,0.04,WeatherDisplay:10.37,2013-05-21 05:01:00,
2013-05-20 23:06:00,44.6,39.8,30.03,SE,126,0.0,0.0,83,0.00,CLR,,0.04,WeatherDisplay:10.37,2013-05-21 05:06:00,
2013-05-20 23:11:00,44.5,40.0,30.03,SE,126,0.0,0.0,84,0.00,CLR,,0.04,WeatherDisplay:10.37,2013-05-21 05:11:00,
2013-05-20 23:16:00,44.2,39.7,30.03,SE,126,0.0,0.0,84,0.00,CLR,,0.04,WeatherDisplay:10.37,2013-05-21 05:16:00,
2013-05-20 23:21:00,44.0,39.5,30.03,SSE,163,0.0,0.1,84,0.00,CLR,,0.04,WeatherDisplay:10.37,2013-05-21 05:21:00,
2013-05-20 23:26:00,43.9,39.4,30.03,SSE,163,0.0,0.0,84,0.00,CLR,,0.04,WeatherDisplay:10.37,2013-05-21 05:26:00,
2013-05-20 23:31:00,43.8,39.3,30.03,SSE,163,0.0,0.1,84,0.00,CLR,,0.04,WeatherDisplay:10.37,2013-05-21 05:31:00,
2013-05-20 23:36:00,43.7,39.2,30.03,South,191,0.0,0.0,84,0.00,CLR,,0.04,WeatherDisplay:10.37,2013-05-21 05:36:00,
2013-05-20 23:41:00,43.5,39.0,30.03,South,191,0.0,0.0,84,0.00,CLR,,0.04,WeatherDisplay:10.37,2013-05-21 05:41:00,
2013-05-20 23:46:00,43.3,39.1,30.03,SSW,192,0.0,0.0,85,0.00,CLR,,0.04,WeatherDisplay:10.37,2013-05-21 05:46:00,
2013-05-20 23:51:00,43.1,38.9,30.03,South,191,0.0,0.0,85,0.00,CLR,,0.04,WeatherDisplay:10.37,2013-05-21 05:51:00,
2013-05-20 23:56:00,42.9,38.7,30.03,South,191,0.0,0.0,85,0.00,CLR,,0.04,WeatherDisplay:10.37,2013-05-21 05:56:00,